This is the latest recevied weather packets stored in our database for station/object AI5YA-13. If no packets are shown the sender has not sent any weather packets the latest 10 day(s).
| Time | Temp. | Humidity | Pressure | Rain* | Wind** | Luminosity | Snow |
|---|---|---|---|---|---|---|---|
| 1777382756 | 22.22° C | 37% | 1014.1 hPa | 0 mm | - | 100 W/m² | - |
| 1777382452 | 21.67° C | 41% | 1013.9 hPa | 0 mm | - | 93 W/m² | - |
| 1777382148 | 20.56° C | 45% | 1014 hPa | 0 mm | - | 64 W/m² | - |
| 1777381844 | 20.56° C | 50% | 1014.1 hPa | 0 mm | - | 65 W/m² | - |
| 1777381544 | 19.44° C | 55% | 1013.9 hPa | 0 mm | - | 65 W/m² | - |
| 1777381239 | 18.89° C | 59% | 1013.9 hPa | 0 mm | - | 52 W/m² | - |
| 1777380938 | 18.89° C | 62% | 1013.9 hPa | 0 mm | - | 39 W/m² | - |
| 1777380634 | 18.33° C | 64% | 1013.5 hPa | 0 mm | - | 33 W/m² | - |
| 1777380330 | 17.78° C | 66% | 1013.5 hPa | 0 mm | - | 25 W/m² | - |
| 1777380026 | 17.78° C | 67% | 1013.6 hPa | 0 mm | - | 22 W/m² | - |
| 1777379722 | 17.22° C | 68% | 1013.4 hPa | 0 mm | - | 19 W/m² | - |
| 1777379418 | 17.22° C | 68% | 1013.5 hPa | 0 mm | - | 16 W/m² | - |
| 1777379113 | 17.22° C | 67% | 1013.3 hPa | 0 mm | - | 10 W/m² | - |
| 1777378808 | 17.78° C | 66% | 1013 hPa | 0 mm | - | 8 W/m² | - |
| 1777378505 | 17.78° C | 65% | 1013.2 hPa | 0 mm | - | 5 W/m² | - |
| 1777378201 | 17.78° C | 65% | 1013 hPa | 0 mm | - | 2 W/m² | - |
| 1777377899 | 18.33° C | 64% | 1012.9 hPa | 0 mm | - | 1 W/m² | - |
| 1777377599 | 18.33° C | 64% | 1012.8 hPa | 0 mm | - | 0 W/m² | - |
| 1777377295 | 18.33° C | 63% | 1012.4 hPa | 0 mm | - | 0 W/m² | - |
| 1777376992 | 18.33° C | 62% | 1012.4 hPa | 0 mm | - | 0 W/m² | - |
| 1777376689 | 18.89° C | 60% | 1012.5 hPa | 0 mm | - | 0 W/m² | - |
| 1777376386 | 18.89° C | 62% | 1012.2 hPa | 0 mm | - | 0 W/m² | - |
| 1777376086 | 18.89° C | 62% | 1012.2 hPa | 0 mm | - | 0 W/m² | - |
| 1777375786 | 18.89° C | 60% | 1012.2 hPa | 0 mm | - | 0 W/m² | - |
| 1777375481 | 18.89° C | 58% | 1012.4 hPa | 0 mm | - | 0 W/m² | - |
* Rain latest hour (hover to see other rain measurements)
** Current wind speed in m/s (hover to see current wind gust speed)